createdAt,value
2017-10-22T00:00:51.290Z,27.70
2017-10-22T00:03:19.183Z,27.50
2017-10-22T00:05:47.418Z,25.97
2017-10-22T00:08:15.536Z,27.67
2017-10-22T00:10:43.514Z,27.37
2017-10-22T00:13:11.163Z,26.17
2017-10-22T00:15:38.892Z,28.10
2017-10-22T00:18:06.897Z,25.90
2017-10-22T00:20:34.929Z,24.17
2017-10-22T00:23:03.666Z,25.70
2017-10-22T00:25:32.728Z,21.70
2017-10-22T00:28:01.291Z,22.80
2017-10-22T00:30:29.947Z,24.87
2017-10-22T00:32:57.677Z,25.70
2017-10-22T00:35:25.331Z,26.40
2017-10-22T00:37:53.652Z,24.20
2017-10-22T00:40:22.664Z,24.70
2017-10-22T00:42:50.306Z,25.67
2017-10-22T00:45:28.104Z,25.43
2017-10-22T00:47:56.613Z,26.27
2017-10-22T00:50:24.356Z,27.63
2017-10-22T00:52:52.097Z,25.67
2017-10-22T00:55:20.668Z,26.73
2017-10-22T00:57:48.380Z,26.60
2017-10-22T01:00:16.090Z,27.60
2017-10-22T01:02:44.241Z,28.47
2017-10-22T01:05:12.909Z,28.17
2017-10-22T01:07:40.654Z,29.37
2017-10-22T01:10:08.524Z,28.23
2017-10-22T01:12:36.260Z,28.27
2017-10-22T01:15:04.085Z,29.90
2017-10-22T01:17:31.767Z,29.77
2017-10-22T01:19:59.874Z,30.17
2017-10-22T01:22:28.145Z,28.70
2017-10-22T01:24:56.209Z,31.23
2017-10-22T01:27:24.001Z,28.77
2017-10-22T01:29:51.737Z,29.73
2017-10-22T01:32:20.006Z,29.40
2017-10-22T01:34:48.392Z,28.40
2017-10-22T01:37:16.901Z,27.87
2017-10-22T01:39:44.800Z,28.70
2017-10-22T01:42:13.372Z,29.40
2017-10-22T01:44:41.145Z,32.10
2017-10-22T01:47:10.019Z,31.30
2017-10-22T01:49:37.797Z,33.37
2017-10-22T01:52:05.722Z,32.00
2017-10-22T01:54:34.842Z,30.87
2017-10-22T01:57:03.030Z,29.03
2017-10-22T01:59:31.588Z,28.27
2017-10-22T02:01:59.793Z,30.50
2017-10-22T02:04:27.809Z,31.80
2017-10-22T02:06:55.504Z,30.80
2017-10-22T02:09:23.245Z,31.70
2017-10-22T02:11:51.079Z,31.37
2017-10-22T02:14:19.425Z,32.20
2017-10-22T02:16:47.801Z,32.90
2017-10-22T02:19:15.719Z,32.53
2017-10-22T02:21:44.373Z,32.33
2017-10-22T02:24:12.051Z,32.43
2017-10-22T02:26:40.901Z,32.47
2017-10-22T02:29:09.006Z,34.00
2017-10-22T02:31:36.671Z,34.17
2017-10-22T02:34:04.342Z,31.97
2017-10-22T02:36:32.309Z,32.60
2017-10-22T02:39:00.569Z,29.07
2017-10-22T02:41:29.262Z,30.57
2017-10-22T02:43:56.954Z,29.13
2017-10-22T02:46:25.983Z,28.03
2017-10-22T02:48:53.652Z,24.80
2017-10-22T02:51:22.201Z,24.23
2017-10-22T02:53:49.913Z,20.13
2017-10-22T02:56:18.334Z,21.57
2017-10-22T02:58:46.116Z,20.67
2017-10-22T03:01:13.797Z,21.97
2017-10-22T03:03:41.567Z,20.70
2017-10-22T03:06:10.164Z,20.47
2017-10-22T03:08:38.236Z,20.40
2017-10-22T03:11:06.196Z,22.37
2017-10-22T03:13:34.536Z,24.60
2017-10-22T03:16:02.294Z,23.77
2017-10-22T03:18:30.309Z,24.47
2017-10-22T03:20:58.007Z,24.67
2017-10-22T03:23:25.766Z,23.53
2017-10-22T03:25:53.873Z,24.20
2017-10-22T03:28:21.623Z,22.80
2017-10-22T03:30:49.635Z,22.77
2017-10-22T03:33:17.473Z,24.43
2017-10-22T03:35:46.481Z,22.13
2017-10-22T03:38:14.143Z,22.43
2017-10-22T03:40:42.033Z,21.63
2017-10-22T03:43:09.689Z,22.00
2017-10-22T03:45:37.346Z,23.43
2017-10-22T03:48:05.020Z,23.00
2017-10-22T03:50:32.660Z,23.67
2017-10-22T03:53:00.313Z,23.93
2017-10-22T03:55:28.478Z,23.87
2017-10-22T03:57:56.853Z,23.53
2017-10-22T04:00:24.511Z,22.10
2017-10-22T04:02:52.357Z,24.33
2017-10-22T04:05:20.695Z,24.83
2017-10-22T04:07:48.360Z,24.37
2017-10-22T04:10:16.186Z,24.83
2017-10-22T04:12:43.860Z,23.30
2017-10-22T04:15:16.563Z,24.47
2017-10-22T04:17:44.230Z,26.33
2017-10-22T04:20:12.561Z,25.77
2017-10-22T04:22:41.038Z,24.13
2017-10-22T04:25:08.868Z,23.03
2017-10-22T04:27:36.882Z,21.30
2017-10-22T04:30:05.914Z,19.53
2017-10-22T04:32:33.614Z,19.60
2017-10-22T04:35:02.375Z,19.60
2017-10-22T04:37:30.042Z,18.80
2017-10-22T04:39:57.937Z,19.30
2017-10-22T04:42:25.559Z,20.47
2017-10-22T04:44:53.540Z,18.53
2017-10-22T04:47:21.177Z,20.03
2017-10-22T04:49:49.257Z,18.73
2017-10-22T04:52:16.927Z,18.17
2017-10-22T04:54:44.584Z,19.37
2017-10-22T04:57:12.249Z,21.43
2017-10-22T04:59:40.930Z,20.60
2017-10-22T05:02:08.633Z,20.30
2017-10-22T05:04:36.523Z,19.93
2017-10-22T05:07:04.253Z,19.97
2017-10-22T05:09:32.855Z,22.50
2017-10-22T05:12:01.841Z,21.37
2017-10-22T05:14:30.388Z,20.50
2017-10-22T05:16:58.779Z,21.27
2017-10-22T05:19:27.354Z,21.40
2017-10-22T05:21:55.322Z,20.13
2017-10-22T05:24:23.098Z,21.27
2017-10-22T05:26:50.861Z,20.33
2017-10-22T05:29:18.795Z,23.27
2017-10-22T05:31:46.718Z,23.57
2017-10-22T05:34:15.117Z,23.67
2017-10-22T05:36:42.882Z,23.07
2017-10-22T05:39:10.600Z,24.50
2017-10-22T05:41:38.235Z,24.00
2017-10-22T05:44:56.196Z,23.77
2017-10-22T05:47:25.080Z,25.73
2017-10-22T05:49:54.651Z,25.20
2017-10-22T05:52:23.359Z,24.70
2017-10-22T05:54:51.246Z,23.50
2017-10-22T05:57:18.981Z,25.17
2017-10-22T05:59:47.542Z,24.00
2017-10-22T06:02:17.483Z,24.63
2017-10-22T06:04:45.395Z,29.23
2017-10-22T06:07:13.409Z,28.17
2017-10-22T06:09:41.431Z,30.53
2017-10-22T06:12:09.105Z,37.93
2017-10-22T06:14:36.928Z,33.27
2017-10-22T06:17:04.609Z,32.40
2017-10-22T06:19:32.279Z,33.20
2017-10-22T06:22:00.006Z,31.40
2017-10-22T06:24:28.184Z,35.27
2017-10-22T06:26:56.218Z,37.70
2017-10-22T06:29:24.207Z,35.50
2017-10-22T06:31:52.261Z,35.77
2017-10-22T06:34:20.420Z,33.57
2017-10-22T06:36:49.457Z,34.47
2017-10-22T06:39:18.306Z,33.63
2017-10-22T06:41:46.309Z,34.03
2017-10-22T06:44:14.073Z,34.23
2017-10-22T06:46:42.111Z,35.47
2017-10-22T06:49:10.440Z,32.93
2017-10-22T06:51:38.876Z,34.90
2017-10-22T06:54:06.636Z,36.80
2017-10-22T06:56:34.350Z,34.50
2017-10-22T06:59:02.101Z,33.20
2017-10-22T07:01:30.083Z,34.07
2017-10-22T07:03:58.221Z,31.87
2017-10-22T07:06:25.951Z,34.40
2017-10-22T07:08:53.693Z,33.97
2017-10-22T07:11:21.412Z,32.10
2017-10-22T07:13:49.121Z,32.73
2017-10-22T07:16:16.894Z,33.70
2017-10-22T07:18:44.610Z,32.83
2017-10-22T07:21:12.269Z,34.53
2017-10-22T07:23:40.001Z,30.53
2017-10-22T07:26:08.575Z,33.30
2017-10-22T07:28:36.276Z,31.97
2017-10-22T07:31:03.948Z,32.03
2017-10-22T07:33:31.701Z,30.47
2017-10-22T07:35:59.484Z,28.67
2017-10-22T07:38:27.226Z,27.93
2017-10-22T07:40:54.992Z,28.10
2017-10-22T07:43:22.802Z,26.93
2017-10-22T07:45:50.533Z,26.27
2017-10-22T07:48:18.234Z,26.83
2017-10-22T07:50:46.020Z,27.83
2017-10-22T07:53:13.795Z,28.67
2017-10-22T07:55:41.507Z,28.97
2017-10-22T07:58:09.216Z,29.47
2017-10-22T08:00:36.928Z,29.00
2017-10-22T08:03:04.646Z,27.03
2017-10-22T08:05:32.351Z,27.03
2017-10-22T08:08:00.103Z,28.37
2017-10-22T08:10:27.860Z,28.57
2017-10-22T08:12:55.629Z,27.37
2017-10-22T08:15:23.365Z,28.20
2017-10-22T08:17:51.092Z,29.27
2017-10-22T08:20:18.791Z,26.83
2017-10-22T08:22:46.634Z,24.60
2017-10-22T08:25:14.444Z,23.07
2017-10-22T08:27:42.197Z,23.83
2017-10-22T08:30:09.963Z,22.93
2017-10-22T08:32:37.642Z,23.20
2017-10-22T08:35:05.555Z,21.70
2017-10-22T08:37:33.312Z,22.53
2017-10-22T08:40:00.995Z,20.67
2017-10-22T08:42:28.692Z,21.33
2017-10-22T08:44:56.441Z,20.70
2017-10-22T08:47:24.138Z,21.00
2017-10-22T08:49:51.848Z,20.77
2017-10-22T08:52:19.610Z,19.20
2017-10-22T08:54:47.365Z,19.80
2017-10-22T08:57:15.098Z,20.10
2017-10-22T08:59:42.839Z,19.40
2017-10-22T09:02:10.608Z,21.20
2017-10-22T09:04:38.408Z,19.97
2017-10-22T09:07:06.164Z,19.50
2017-10-22T09:09:33.877Z,19.40
2017-10-22T09:12:01.636Z,18.13
2017-10-22T09:14:29.396Z,16.20
2017-10-22T09:16:57.221Z,14.97
2017-10-22T09:19:25.065Z,15.10
2017-10-22T09:21:52.778Z,14.33
2017-10-22T09:24:20.553Z,13.77
2017-10-22T09:26:48.409Z,13.43
2017-10-22T09:29:16.119Z,13.60
2017-10-22T09:31:44.893Z,14.03
2017-10-22T09:34:12.926Z,13.50
2017-10-22T09:36:40.688Z,13.93
2017-10-22T09:39:08.418Z,14.70
2017-10-22T09:41:36.104Z,15.30
2017-10-22T09:44:03.849Z,15.17
2017-10-22T09:46:31.587Z,14.90
2017-10-22T09:48:59.416Z,13.40
2017-10-22T09:51:27.217Z,14.80
2017-10-22T09:53:54.973Z,14.77
2017-10-22T09:56:23.695Z,13.07
2017-10-22T09:58:51.703Z,12.27
2017-10-22T10:04:37.319Z,12.13
2017-10-22T10:07:15.382Z,12.83
2017-10-22T10:09:49.244Z,12.50
2017-10-22T10:12:26.280Z,12.40
2017-10-22T10:14:56.494Z,12.77
2017-10-22T10:17:37.889Z,12.00
2017-10-22T10:20:08.513Z,12.13
2017-10-22T10:22:37.044Z,12.63
2017-10-22T10:25:05.657Z,13.03
2017-10-22T10:27:33.489Z,13.53
2017-10-22T10:30:02.012Z,12.50
2017-10-22T10:32:29.815Z,14.40
2017-10-22T10:34:57.712Z,12.90
2017-10-22T10:37:25.990Z,14.10
2017-10-22T10:39:54.368Z,14.00
2017-10-22T10:42:22.148Z,13.10
2017-10-22T10:44:49.933Z,13.40
2017-10-22T10:50:29.405Z,11.17
2017-10-22T10:52:57.143Z,12.20
2017-10-22T10:55:24.856Z,11.97
2017-10-22T10:57:52.552Z,11.77
2017-10-22T11:00:21.382Z,11.30
2017-10-22T11:02:49.311Z,10.80
2017-10-22T11:05:17.089Z,10.80
2017-10-22T11:07:45.521Z,12.33
2017-10-22T11:10:13.296Z,10.90
2017-10-22T11:12:42.290Z,10.50
2017-10-22T11:15:10.799Z,11.00
2017-10-22T11:17:38.518Z,10.80
2017-10-22T11:20:06.237Z,9.73
2017-10-22T11:22:33.999Z,9.63
2017-10-22T11:25:02.201Z,8.20
2017-10-22T11:27:30.787Z,9.63
2017-10-22T11:30:00.686Z,8.67
2017-10-22T11:32:28.797Z,7.10
2017-10-22T11:34:57.385Z,8.70
2017-10-22T11:37:25.104Z,7.93
2017-10-22T11:39:52.844Z,8.27
2017-10-22T11:42:21.117Z,7.87
2017-10-22T11:44:48.836Z,8.27
2017-10-22T11:47:16.673Z,8.30
2017-10-22T11:49:45.312Z,8.97
2017-10-22T11:52:13.518Z,9.27
2017-10-22T11:54:42.124Z,9.23
2017-10-22T11:57:24.419Z,9.80
2017-10-22T11:59:52.139Z,10.00
2017-10-22T12:02:19.807Z,10.00
2017-10-22T12:04:49.948Z,9.83
2017-10-22T12:07:19.605Z,9.90
2017-10-22T12:10:02.900Z,9.63
2017-10-22T12:12:31.602Z,9.77
2017-10-22T12:15:00.078Z,10.07
2017-10-22T12:17:30.641Z,12.07
2017-10-22T12:19:59.490Z,12.40
2017-10-22T12:22:27.288Z,11.13
2017-10-22T12:24:55.100Z,12.33
2017-10-22T12:27:23.748Z,11.80
2017-10-22T12:29:51.438Z,11.40
2017-10-22T12:32:19.149Z,11.20
2017-10-22T12:34:47.459Z,11.77
2017-10-22T12:37:16.174Z,11.73
2017-10-22T12:39:59.951Z,11.20
2017-10-22T12:42:37.709Z,11.63
2017-10-22T12:45:06.389Z,10.57
2017-10-22T12:47:35.733Z,10.43
2017-10-22T12:50:04.140Z,10.63
2017-10-22T12:52:31.964Z,9.90
2017-10-22T12:54:59.712Z,11.70
2017-10-22T12:57:27.539Z,12.57
2017-10-22T12:59:55.589Z,12.27
2017-10-22T13:02:38.614Z,10.50
2017-10-22T13:05:07.216Z,11.00
2017-10-22T13:07:35.831Z,10.00
2017-10-22T13:10:03.613Z,10.57
2017-10-22T13:12:31.232Z,10.40
2017-10-22T13:14:58.864Z,10.60
2017-10-22T13:17:26.530Z,9.70
2017-10-22T13:19:54.142Z,9.47
2017-10-22T13:22:22.033Z,9.20
2017-10-22T13:24:49.795Z,9.73
2017-10-22T13:27:17.828Z,11.30
2017-10-22T13:29:45.998Z,9.77
2017-10-22T13:32:13.934Z,9.80
2017-10-22T13:34:42.205Z,9.60
2017-10-22T13:37:10.960Z,9.77
2017-10-22T13:39:39.692Z,10.20
2017-10-22T13:42:07.863Z,9.60
2017-10-22T13:44:36.922Z,9.43
2017-10-22T13:47:05.367Z,9.37
2017-10-22T13:49:33.065Z,8.70
2017-10-22T13:52:01.480Z,10.03
2017-10-22T13:54:34.025Z,9.33
2017-10-22T13:57:10.669Z,9.53
2017-10-22T13:59:38.607Z,9.23
2017-10-22T14:02:08.472Z,9.93
2017-10-22T14:04:36.107Z,9.10
2017-10-22T14:07:03.862Z,11.20
2017-10-22T14:09:31.553Z,10.77
2017-10-22T14:11:59.288Z,11.30
2017-10-22T14:14:26.942Z,10.40
2017-10-22T14:16:54.641Z,10.93
2017-10-22T14:19:22.351Z,9.30
2017-10-22T14:21:49.987Z,9.07
2017-10-22T14:24:18.355Z,10.20
2017-10-22T14:26:47.852Z,12.03
2017-10-22T14:29:15.529Z,11.17
2017-10-22T14:31:43.179Z,11.07
2017-10-22T14:34:12.651Z,12.87
2017-10-22T14:36:41.126Z,11.17
2017-10-22T14:39:09.113Z,9.73
2017-10-22T14:41:37.552Z,10.20
2017-10-22T14:44:06.121Z,10.13
2017-10-22T14:46:35.284Z,9.50
2017-10-22T14:49:04.268Z,11.23
2017-10-22T14:51:33.348Z,10.27
2017-10-22T14:54:02.418Z,10.60
2017-10-22T14:56:31.670Z,9.63
2017-10-22T14:59:00.796Z,9.80
2017-10-22T15:01:34.128Z,8.83
2017-10-22T15:04:02.215Z,9.13
2017-10-22T15:06:30.757Z,11.83
2017-10-22T15:08:58.489Z,10.90
2017-10-22T15:11:27.902Z,11.63
2017-10-22T15:13:56.976Z,10.83
2017-10-22T15:16:24.921Z,10.57
2017-10-22T15:18:53.036Z,11.73
2017-10-22T15:21:22.990Z,9.57
2017-10-22T15:23:50.828Z,9.00
2017-10-22T15:26:18.613Z,9.10
2017-10-22T15:28:46.741Z,9.87
2017-10-22T15:31:15.495Z,10.00
2017-10-22T15:33:45.060Z,12.73
2017-10-22T15:36:15.291Z,16.40
2017-10-22T15:38:43.608Z,19.03
2017-10-22T15:41:13.272Z,18.50
2017-10-22T15:43:41.532Z,22.30
2017-10-22T15:46:09.466Z,21.70
2017-10-22T15:48:38.988Z,17.93
2017-10-22T15:51:07.774Z,19.47
2017-10-22T15:53:36.340Z,25.00
2017-10-22T15:56:06.853Z,26.17
2017-10-22T15:58:36.294Z,21.90
2017-10-22T16:01:04.617Z,21.27
2017-10-22T16:03:33.275Z,20.97
2017-10-22T16:06:00.971Z,22.83
2017-10-22T16:08:28.732Z,21.50
2017-10-22T16:10:56.491Z,21.40
2017-10-22T16:13:24.164Z,23.00
2017-10-22T16:15:51.937Z,21.33
2017-10-22T16:18:19.749Z,24.77
2017-10-22T16:20:48.152Z,22.50
2017-10-22T16:23:15.945Z,23.90
2017-10-22T16:25:43.601Z,26.00
2017-10-22T16:28:11.316Z,25.53
2017-10-22T16:30:39.879Z,28.40
2017-10-22T16:33:07.761Z,30.00
2017-10-22T16:35:35.511Z,31.07
2017-10-22T16:38:03.146Z,31.17
2017-10-22T16:40:37.124Z,32.23
2017-10-22T16:43:06.107Z,29.17
2017-10-22T16:45:34.069Z,32.13
2017-10-22T16:48:03.542Z,32.30
2017-10-22T16:50:33.694Z,30.70
2017-10-22T16:53:01.673Z,33.20
2017-10-22T16:55:30.222Z,59.23
2017-10-22T16:58:02.901Z,68.27
2017-10-22T17:00:31.103Z,61.43
2017-10-22T17:02:58.830Z,62.33
2017-10-22T17:05:26.523Z,51.10
2017-10-22T17:07:54.312Z,48.47
2017-10-22T17:10:21.982Z,37.93
2017-10-22T17:12:51.173Z,32.60
2017-10-22T17:15:18.877Z,34.77
2017-10-22T17:17:47.145Z,34.67
2017-10-22T17:20:17.766Z,38.93
2017-10-22T17:22:46.568Z,45.57
2017-10-22T17:25:14.277Z,49.10
2017-10-22T17:27:42.106Z,48.13
2017-10-22T17:30:10.829Z,51.17
2017-10-22T17:32:38.760Z,52.17
2017-10-22T17:35:06.474Z,48.17
2017-10-22T17:37:34.666Z,43.93
2017-10-22T17:40:04.097Z,42.33
2017-10-22T17:42:32.236Z,34.90
2017-10-22T17:44:59.841Z,30.37
2017-10-22T17:47:27.951Z,30.23
2017-10-22T17:49:55.554Z,30.37
2017-10-22T17:52:23.377Z,25.30
2017-10-22T17:54:51.224Z,29.33
2017-10-22T17:57:19.041Z,27.60
2017-10-22T17:59:46.676Z,27.97
2017-10-22T18:02:14.290Z,34.10
2017-10-22T18:04:41.966Z,38.50
2017-10-22T18:07:09.640Z,43.27
2017-10-22T18:09:37.264Z,45.97
2017-10-22T18:12:05.113Z,45.27
2017-10-22T18:14:32.973Z,45.33
2017-10-22T18:17:00.706Z,45.10
2017-10-22T18:19:28.348Z,37.40
2017-10-22T18:21:56.459Z,42.67
2017-10-22T18:24:24.673Z,44.87
2017-10-22T18:26:52.422Z,39.03
2017-10-22T18:29:20.066Z,42.47
2017-10-22T18:31:47.702Z,38.80
2017-10-22T18:34:15.284Z,43.20
2017-10-22T18:36:43.129Z,47.87
2017-10-22T18:39:12.951Z,49.33
2017-10-22T18:41:40.720Z,45.13
2017-10-22T18:44:08.365Z,42.30
2017-10-22T18:46:36.168Z,40.90
2017-10-22T18:49:03.774Z,40.07
2017-10-22T18:51:41.346Z,44.00
2017-10-22T18:54:09.580Z,41.93
2017-10-22T18:56:37.232Z,38.37
2017-10-22T18:59:05.313Z,33.60
2017-10-22T19:01:32.990Z,35.53
2017-10-22T19:04:00.622Z,35.50
2017-10-22T19:06:28.190Z,29.33
2017-10-22T19:08:56.749Z,31.07
2017-10-22T19:11:24.319Z,30.67
2017-10-22T19:13:51.892Z,27.37
2017-10-22T19:16:19.585Z,27.30
2017-10-22T19:18:47.224Z,29.70
2017-10-22T19:21:14.805Z,32.77
2017-10-22T19:23:42.466Z,33.67
2017-10-22T19:26:10.913Z,31.70
2017-10-22T19:28:38.513Z,34.30
2017-10-22T19:31:06.179Z,30.50
2017-10-22T19:33:33.781Z,27.70
2017-10-22T19:36:01.348Z,26.00
2017-10-22T19:38:28.965Z,24.80
2017-10-22T19:40:56.760Z,22.33
2017-10-22T19:43:24.332Z,21.77
2017-10-22T19:45:51.949Z,20.07
2017-10-22T19:48:19.522Z,23.30
2017-10-22T19:50:47.096Z,23.70
2017-10-22T19:53:14.773Z,22.40
2017-10-22T19:55:42.584Z,22.40
2017-10-22T19:58:10.175Z,21.13
2017-10-22T20:00:58.912Z,19.93
2017-10-22T20:03:26.503Z,22.20
2017-10-22T20:05:54.366Z,20.97
2017-10-22T20:08:21.988Z,21.17
2017-10-22T20:10:49.780Z,21.63
2017-10-22T20:13:17.363Z,23.40
2017-10-22T20:15:45.045Z,22.40
2017-10-22T20:18:12.869Z,23.03
2017-10-22T20:20:41.377Z,21.70
2017-10-22T20:23:09.533Z,19.90
2017-10-22T20:25:37.245Z,18.93
2017-10-22T20:28:05.045Z,20.03
2017-10-22T20:30:32.769Z,19.90
2017-10-22T20:33:01.043Z,21.30
2017-10-22T20:35:28.620Z,19.37
2017-10-22T20:37:56.272Z,17.30
2017-10-22T20:40:24.106Z,16.60
2017-10-22T20:42:51.739Z,17.30
2017-10-22T20:45:19.403Z,14.97
2017-10-22T20:47:47.218Z,14.23
2017-10-22T20:50:14.841Z,16.87
2017-10-22T20:52:43.455Z,16.30
2017-10-22T20:55:11.288Z,14.70
2017-10-22T20:57:39.456Z,16.53
2017-10-22T21:00:09.525Z,15.00
2017-10-22T21:02:38.828Z,16.03
2017-10-22T21:05:06.529Z,15.53
2017-10-22T21:07:34.149Z,15.70
2017-10-22T21:10:02.299Z,14.90
2017-10-22T21:12:30.439Z,17.63
2017-10-22T21:14:58.060Z,16.93
2017-10-22T21:17:25.704Z,17.77
2017-10-22T21:19:53.362Z,17.10
2017-10-22T21:22:22.487Z,18.20
2017-10-22T21:24:50.315Z,16.80
2017-10-22T21:27:18.345Z,18.80
2017-10-22T21:29:46.256Z,17.60
2017-10-22T21:32:13.872Z,17.87
2017-10-22T21:34:41.658Z,15.13
2017-10-22T21:37:09.326Z,17.13
2017-10-22T21:39:37.623Z,15.83
2017-10-22T21:42:05.301Z,17.80
2017-10-22T21:44:33.086Z,16.00
2017-10-22T21:47:03.393Z,15.90
2017-10-22T21:49:31.297Z,16.60
2017-10-22T21:51:59.837Z,15.37
2017-10-22T21:54:28.601Z,17.07
2017-10-22T21:56:56.289Z,16.30
2017-10-22T21:59:23.913Z,14.40
2017-10-22T22:01:59.996Z,14.77
2017-10-22T22:04:29.980Z,15.53
2017-10-22T22:07:10.077Z,14.30
2017-10-22T22:09:37.791Z,15.83
2017-10-22T22:12:05.472Z,16.13
2017-10-22T22:14:33.220Z,15.40
2017-10-22T22:17:00.872Z,14.07
2017-10-22T22:19:28.593Z,14.13
2017-10-22T22:21:57.268Z,13.90
2017-10-22T22:24:25.485Z,13.47
2017-10-22T22:26:53.146Z,13.67
2017-10-22T22:29:20.887Z,13.90
2017-10-22T22:31:48.555Z,16.20
2017-10-22T22:34:16.549Z,14.00
2017-10-22T22:36:44.141Z,14.20
2017-10-22T22:39:11.778Z,15.20
2017-10-22T22:41:39.374Z,15.20
2017-10-22T22:44:07.016Z,15.40
2017-10-22T22:46:34.652Z,14.40
2017-10-22T22:49:02.838Z,14.53
2017-10-22T22:51:31.731Z,16.60
2017-10-22T22:54:00.264Z,16.07
2017-10-22T22:56:28.265Z,15.50
2017-10-22T22:58:56.000Z,15.13
2017-10-22T23:01:24.144Z,16.20
2017-10-22T23:03:52.249Z,16.20
2017-10-22T23:06:20.041Z,16.77
2017-10-22T23:08:48.382Z,15.70
2017-10-22T23:11:16.902Z,15.87
2017-10-22T23:13:45.395Z,16.00
2017-10-22T23:16:13.432Z,16.20
2017-10-22T23:18:41.029Z,15.77
2017-10-22T23:21:09.778Z,16.20
2017-10-22T23:23:38.483Z,16.53
2017-10-22T23:26:06.196Z,16.00
2017-10-22T23:28:33.773Z,16.67
2017-10-22T23:31:02.274Z,17.53
2017-10-22T23:33:30.933Z,16.87
2017-10-22T23:35:58.537Z,17.63
2017-10-22T23:38:26.160Z,16.63
2017-10-22T23:40:54.060Z,15.00
2017-10-22T23:43:21.728Z,16.60
2017-10-22T23:45:49.535Z,18.00
2017-10-22T23:48:17.343Z,15.70
2017-10-22T23:50:45.845Z,16.50
2017-10-22T23:53:13.536Z,16.23
2017-10-22T23:55:41.089Z,16.00
2017-10-22T23:58:08.645Z,17.00
